RKPC/CJU METAR and TAF weather

Enter ICAO airport designator
Station Type Date Time Source
RKPC METAR 2020/09/22 02:00 UTC NOAA

RKPC 220200Z 08017KT 9999 BKN025 BKN130 21/18 Q1016 NOSIG


Station Type Date Time Source
RKPC Decoded METAR 2020/09/22 02:00 UTC NOAA

Cheju International Airport, Korea, South (RKPC) 33-30N 126-30E 28M
Sep 21, 2020 - 10:00 PM EDT / 2020.09.22 0200 UTC
Wind: from the E (080 degrees) at 20 MPH (17 KT):0
Visibility: greater than 7 mile(s):0
Sky conditions: mostly cloudy
Temperature: 69 F (21 C)
Dew Point: 64 F (18 C)
Relative Humidity: 82%
Pressure (altimeter): 30.00 in. Hg (1016 hPa)
ob: RKPC 220200Z 08017KT 9999 BKN025 BKN130 21/18 Q1016 NOSIG
cycle: 2

Station Type Date Time Source
RKPC TAF 2020/09/21 18:06 UTC NOAA

TAF TAF RKPC 211700Z 2118/2224 11008KT CAVOK TN19/2121Z TX22/2206Z TN19/2221Z
BECMG 2121/2122 9999 BKN030 BKN150
BECMG 2123/2124 07015G25KT

Example: see airport list